LDY weather

City of Derry Airport
Derry, Northern Ireland, United Kingdom

Public forecast

Using degrees Celsius for public forecast. Weather courtesy of forecast.io.

Current aviation weather report (METAR) for City of Derry Airport

Report is more than 2 hours old.

Retrieved 2019/10/18 00:20 UTC (2 hours ago):

EGAE 180020Z VRB03KT CAVOK 06/05 Q0992

Closest aviation forecast (TAF) to City of Derry Airport

Closest forecast is Belfast International Airport, 40.0 nm (74.1 km) SE. Retrieved 2019-10-18 00:00 UTC (2 hours ago):

TAF EGAA 172256Z 1800/1824 17006KT 9999 SCT035 PROB30 TEMPO 1802/1808 BKN012 TEMPO 1808/1824 7000 SHRA PROB30 TEMPO 1809/1819 4000 +SHRA +TSRA BKN014 BKN020CB